sensor_id;sensor_type;location;lat;lon;timestamp;P1;durP1;ratioP1;P2;durP2;ratioP2
70549;SDS011;58101;48.658;2.328;2023-07-29T00:01:27;5.53;;;1.30;;
70549;SDS011;58101;48.658;2.328;2023-07-29T00:03:52;4.15;;;1.20;;
70549;SDS011;58101;48.658;2.328;2023-07-29T00:06:18;5.38;;;1.73;;
70549;SDS011;58101;48.658;2.328;2023-07-29T00:08:43;6.68;;;1.30;;
70549;SDS011;58101;48.658;2.328;2023-07-29T00:11:09;3.50;;;1.00;;
70549;SDS011;58101;48.658;2.328;2023-07-29T00:13:35;4.45;;;1.20;;
70549;SDS011;58101;48.658;2.328;2023-07-29T00:16:00;5.00;;;1.30;;
70549;SDS011;58101;48.658;2.328;2023-07-29T00:18:26;4.00;;;1.20;;
70549;SDS011;58101;48.658;2.328;2023-07-29T00:20:52;4.38;;;1.20;;
70549;SDS011;58101;48.658;2.328;2023-07-29T00:23:18;5.75;;;1.38;;
70549;SDS011;58101;48.658;2.328;2023-07-29T00:25:47;4.70;;;1.10;;
70549;SDS011;58101;48.658;2.328;2023-07-29T00:28:12;4.15;;;1.10;;
70549;SDS011;58101;48.658;2.328;2023-07-29T00:30:38;4.10;;;1.15;;
70549;SDS011;58101;48.658;2.328;2023-07-29T00:33:04;4.40;;;1.20;;
70549;SDS011;58101;48.658;2.328;2023-07-29T00:35:29;5.07;;;1.23;;
70549;SDS011;58101;48.658;2.328;2023-07-29T00:37:55;6.05;;;1.30;;
70549;SDS011;58101;48.658;2.328;2023-07-29T00:40:21;6.35;;;1.38;;
70549;SDS011;58101;48.658;2.328;2023-07-29T00:42:48;7.68;;;1.30;;
70549;SDS011;58101;48.658;2.328;2023-07-29T00:45:15;5.00;;;1.10;;
70549;SDS011;58101;48.658;2.328;2023-07-29T00:47:41;5.07;;;1.40;;
70549;SDS011;58101;48.658;2.328;2023-07-29T00:50:08;4.38;;;1.15;;
70549;SDS011;58101;48.658;2.328;2023-07-29T00:52:36;5.00;;;1.20;;
70549;SDS011;58101;48.658;2.328;2023-07-29T00:55:01;4.15;;;1.20;;
70549;SDS011;58101;48.658;2.328;2023-07-29T00:59:54;3.92;;;1.10;;
70549;SDS011;58101;48.658;2.328;2023-07-29T01:02:21;4.40;;;1.30;;
70549;SDS011;58101;48.658;2.328;2023-07-29T01:04:51;5.55;;;1.48;;
70549;SDS011;58101;48.658;2.328;2023-07-29T01:07:27;4.80;;;1.50;;
70549;SDS011;58101;48.658;2.328;2023-07-29T01:10:15;5.82;;;1.40;;
70549;SDS011;58101;48.658;2.328;2023-07-29T01:15:33;7.80;;;1.40;;
70549;SDS011;58101;48.658;2.328;2023-07-29T01:18:23;5.57;;;1.30;;
70549;SDS011;58101;48.658;2.328;2023-07-29T01:20:53;4.30;;;1.25;;
70549;SDS011;58101;48.658;2.328;2023-07-29T01:23:23;4.80;;;1.30;;
70549;SDS011;58101;48.658;2.328;2023-07-29T01:25:49;5.88;;;1.40;;
70549;SDS011;58101;48.658;2.328;2023-07-29T01:28:15;4.07;;;1.13;;
70549;SDS011;58101;48.658;2.328;2023-07-29T01:30:40;5.35;;;1.30;;
70549;SDS011;58101;48.658;2.328;2023-07-29T01:33:16;4.32;;;1.30;;
70549;SDS011;58101;48.658;2.328;2023-07-29T01:35:46;4.85;;;1.25;;
70549;SDS011;58101;48.658;2.328;2023-07-29T01:38:19;4.47;;;1.20;;
70549;SDS011;58101;48.658;2.328;2023-07-29T01:40:49;5.80;;;1.20;;
70549;SDS011;58101;48.658;2.328;2023-07-29T01:43:17;4.00;;;1.20;;
70549;SDS011;58101;48.658;2.328;2023-07-29T01:45:48;4.03;;;1.17;;
70549;SDS011;58101;48.658;2.328;2023-07-29T01:48:14;6.15;;;1.40;;
70549;SDS011;58101;48.658;2.328;2023-07-29T01:50:40;5.05;;;1.30;;
70549;SDS011;58101;48.658;2.328;2023-07-29T01:53:06;6.05;;;1.30;;
70549;SDS011;58101;48.658;2.328;2023-07-29T01:55:33;4.35;;;1.35;;
70549;SDS011;58101;48.658;2.328;2023-07-29T01:57:58;4.05;;;1.20;;
70549;SDS011;58101;48.658;2.328;2023-07-29T02:00:24;4.90;;;1.30;;
70549;SDS011;58101;48.658;2.328;2023-07-29T02:02:49;5.55;;;1.30;;
70549;SDS011;58101;48.658;2.328;2023-07-29T02:05:15;4.55;;;1.30;;
70549;SDS011;58101;48.658;2.328;2023-07-29T02:07:40;4.22;;;1.25;;
70549;SDS011;58101;48.658;2.328;2023-07-29T02:10:06;5.20;;;1.27;;
70549;SDS011;58101;48.658;2.328;2023-07-29T02:12:32;6.45;;;1.42;;
70549;SDS011;58101;48.658;2.328;2023-07-29T02:14:58;5.20;;;1.38;;
70549;SDS011;58101;48.658;2.328;2023-07-29T02:17:24;4.30;;;1.30;;
70549;SDS011;58101;48.658;2.328;2023-07-29T02:19:51;5.60;;;1.60;;
70549;SDS011;58101;48.658;2.328;2023-07-29T02:22:17;6.57;;;1.30;;
70549;SDS011;58101;48.658;2.328;2023-07-29T02:24:43;5.40;;;1.40;;
70549;SDS011;58101;48.658;2.328;2023-07-29T02:27:09;4.50;;;1.40;;
70549;SDS011;58101;48.658;2.328;2023-07-29T02:29:34;4.70;;;1.40;;
70549;SDS011;58101;48.658;2.328;2023-07-29T02:32:00;5.60;;;1.55;;
70549;SDS011;58101;48.658;2.328;2023-07-29T02:34:26;5.28;;;1.40;;
70549;SDS011;58101;48.658;2.328;2023-07-29T02:36:51;6.10;;;1.52;;
70549;SDS011;58101;48.658;2.328;2023-07-29T02:39:17;4.90;;;1.60;;
70549;SDS011;58101;48.658;2.328;2023-07-29T02:41:43;4.47;;;1.30;;
70549;SDS011;58101;48.658;2.328;2023-07-29T02:44:08;6.50;;;1.65;;
70549;SDS011;58101;48.658;2.328;2023-07-29T02:46:34;5.72;;;1.50;;
70549;SDS011;58101;48.658;2.328;2023-07-29T02:49:01;5.07;;;1.52;;
70549;SDS011;58101;48.658;2.328;2023-07-29T02:51:28;5.38;;;1.50;;
70549;SDS011;58101;48.658;2.328;2023-07-29T02:53:53;6.15;;;1.70;;
70549;SDS011;58101;48.658;2.328;2023-07-29T02:56:19;5.70;;;1.50;;
70549;SDS011;58101;48.658;2.328;2023-07-29T02:58:45;4.60;;;1.40;;
70549;SDS011;58101;48.658;2.328;2023-07-29T03:01:10;5.60;;;1.48;;
70549;SDS011;58101;48.658;2.328;2023-07-29T03:03:39;6.18;;;1.60;;
70549;SDS011;58101;48.658;2.328;2023-07-29T03:06:05;5.15;;;1.50;;
70549;SDS011;58101;48.658;2.328;2023-07-29T03:08:34;4.80;;;1.60;;
70549;SDS011;58101;48.658;2.328;2023-07-29T03:11:05;4.70;;;1.40;;
70549;SDS011;58101;48.658;2.328;2023-07-29T03:13:32;5.80;;;1.50;;
70549;SDS011;58101;48.658;2.328;2023-07-29T03:16:08;5.32;;;1.50;;
70549;SDS011;58101;48.658;2.328;2023-07-29T03:18:35;5.25;;;1.58;;
70549;SDS011;58101;48.658;2.328;2023-07-29T03:21:01;5.35;;;1.60;;
70549;SDS011;58101;48.658;2.328;2023-07-29T03:23:27;5.65;;;1.45;;
70549;SDS011;58101;48.658;2.328;2023-07-29T03:25:57;4.38;;;1.40;;
70549;SDS011;58101;48.658;2.328;2023-07-29T03:28:25;5.30;;;1.70;;
70549;SDS011;58101;48.658;2.328;2023-07-29T03:30:52;6.15;;;1.50;;
70549;SDS011;58101;48.658;2.328;2023-07-29T03:33:21;5.45;;;1.70;;
70549;SDS011;58101;48.658;2.328;2023-07-29T03:35:48;4.70;;;1.50;;
70549;SDS011;58101;48.658;2.328;2023-07-29T03:38:14;5.10;;;1.60;;
70549;SDS011;58101;48.658;2.328;2023-07-29T03:40:40;5.72;;;1.50;;
70549;SDS011;58101;48.658;2.328;2023-07-29T03:43:07;4.75;;;1.40;;
70549;SDS011;58101;48.658;2.328;2023-07-29T03:45:33;6.30;;;1.60;;
70549;SDS011;58101;48.658;2.328;2023-07-29T03:48:02;6.85;;;1.73;;
70549;SDS011;58101;48.658;2.328;2023-07-29T03:50:29;4.53;;;1.40;;
70549;SDS011;58101;48.658;2.328;2023-07-29T03:52:55;5.43;;;1.50;;
70549;SDS011;58101;48.658;2.328;2023-07-29T03:55:21;4.75;;;1.50;;
70549;SDS011;58101;48.658;2.328;2023-07-29T04:00:13;4.90;;;1.40;;
70549;SDS011;58101;48.658;2.328;2023-07-29T04:02:41;5.00;;;1.30;;
70549;SDS011;58101;48.658;2.328;2023-07-29T04:05:07;4.88;;;1.50;;
70549;SDS011;58101;48.658;2.328;2023-07-29T04:07:33;5.55;;;1.50;;
70549;SDS011;58101;48.658;2.328;2023-07-29T04:10:00;5.32;;;1.58;;
70549;SDS011;58101;48.658;2.328;2023-07-29T04:12:26;5.40;;;1.67;;
70549;SDS011;58101;48.658;2.328;2023-07-29T04:14:53;5.20;;;1.40;;
70549;SDS011;58101;48.658;2.328;2023-07-29T04:17:19;4.68;;;1.38;;
70549;SDS011;58101;48.658;2.328;2023-07-29T04:19:44;5.20;;;1.42;;
70549;SDS011;58101;48.658;2.328;2023-07-29T04:22:10;4.90;;;1.50;;
70549;SDS011;58101;48.658;2.328;2023-07-29T04:24:35;5.38;;;1.30;;
70549;SDS011;58101;48.658;2.328;2023-07-29T04:27:01;5.18;;;1.40;;
70549;SDS011;58101;48.658;2.328;2023-07-29T04:29:27;4.80;;;1.30;;
70549;SDS011;58101;48.658;2.328;2023-07-29T04:31:52;4.60;;;1.30;;
70549;SDS011;58101;48.658;2.328;2023-07-29T04:34:18;9.00;;;1.55;;
70549;SDS011;58101;48.658;2.328;2023-07-29T04:36:45;5.45;;;1.20;;
70549;SDS011;58101;48.658;2.328;2023-07-29T04:39:11;5.80;;;1.40;;
70549;SDS011;58101;48.658;2.328;2023-07-29T04:41:36;5.50;;;1.25;;
70549;SDS011;58101;48.658;2.328;2023-07-29T04:44:02;5.95;;;1.30;;
70549;SDS011;58101;48.658;2.328;2023-07-29T04:46:28;4.95;;;1.35;;
70549;SDS011;58101;48.658;2.328;2023-07-29T04:48:53;4.65;;;1.30;;
70549;SDS011;58101;48.658;2.328;2023-07-29T04:51:19;5.18;;;1.42;;
70549;SDS011;58101;48.658;2.328;2023-07-29T04:53:45;4.85;;;1.15;;
70549;SDS011;58101;48.658;2.328;2023-07-29T04:56:11;5.95;;;1.33;;
70549;SDS011;58101;48.658;2.328;2023-07-29T04:58:36;4.05;;;1.13;;
70549;SDS011;58101;48.658;2.328;2023-07-29T05:01:02;4.85;;;1.20;;
70549;SDS011;58101;48.658;2.328;2023-07-29T05:03:28;5.35;;;1.20;;
70549;SDS011;58101;48.658;2.328;2023-07-29T05:05:54;6.70;;;1.40;;
70549;SDS011;58101;48.658;2.328;2023-07-29T05:08:21;4.70;;;1.13;;
70549;SDS011;58101;48.658;2.328;2023-07-29T05:10:50;4.55;;;1.15;;
70549;SDS011;58101;48.658;2.328;2023-07-29T05:13:16;4.50;;;1.20;;
70549;SDS011;58101;48.658;2.328;2023-07-29T05:15:42;3.97;;;1.13;;
70549;SDS011;58101;48.658;2.328;2023-07-29T05:18:08;3.53;;;1.02;;
70549;SDS011;58101;48.658;2.328;2023-07-29T05:20:34;5.07;;;1.25;;
70549;SDS011;58101;48.658;2.328;2023-07-29T05:22:59;4.38;;;1.13;;
70549;SDS011;58101;48.658;2.328;2023-07-29T05:25:25;3.45;;;0.93;;
70549;SDS011;58101;48.658;2.328;2023-07-29T05:27:51;6.60;;;1.13;;
70549;SDS011;58101;48.658;2.328;2023-07-29T05:30:17;4.63;;;1.13;;
70549;SDS011;58101;48.658;2.328;2023-07-29T05:32:42;4.50;;;1.20;;
70549;SDS011;58101;48.658;2.328;2023-07-29T05:35:08;3.70;;;1.00;;
70549;SDS011;58101;48.658;2.328;2023-07-29T05:37:34;6.13;;;1.00;;
70549;SDS011;58101;48.658;2.328;2023-07-29T05:40:02;4.95;;;1.10;;
70549;SDS011;58101;48.658;2.328;2023-07-29T05:42:32;3.95;;;1.00;;
70549;SDS011;58101;48.658;2.328;2023-07-29T05:44:57;4.35;;;1.10;;
70549;SDS011;58101;48.658;2.328;2023-07-29T05:47:23;4.28;;;1.10;;
70549;SDS011;58101;48.658;2.328;2023-07-29T05:49:48;7.07;;;1.20;;
70549;SDS011;58101;48.658;2.328;2023-07-29T05:52:14;3.08;;;0.85;;
70549;SDS011;58101;48.658;2.328;2023-07-29T05:54:40;3.25;;;0.90;;
70549;SDS011;58101;48.658;2.328;2023-07-29T05:57:07;3.20;;;0.80;;
70549;SDS011;58101;48.658;2.328;2023-07-29T05:59:37;4.95;;;1.00;;
70549;SDS011;58101;48.658;2.328;2023-07-29T06:02:02;4.45;;;1.20;;
70549;SDS011;58101;48.658;2.328;2023-07-29T06:04:31;3.53;;;0.80;;
70549;SDS011;58101;48.658;2.328;2023-07-29T06:06:57;3.78;;;0.90;;
70549;SDS011;58101;48.658;2.328;2023-07-29T06:09:22;2.47;;;0.80;;
70549;SDS011;58101;48.658;2.328;2023-07-29T06:11:48;3.00;;;0.80;;
70549;SDS011;58101;48.658;2.328;2023-07-29T06:14:14;4.03;;;1.00;;
70549;SDS011;58101;48.658;2.328;2023-07-29T06:16:40;2.58;;;0.80;;
70549;SDS011;58101;48.658;2.328;2023-07-29T06:19:05;3.10;;;0.82;;
70549;SDS011;58101;48.658;2.328;2023-07-29T06:21:33;3.45;;;0.90;;
70549;SDS011;58101;48.658;2.328;2023-07-29T06:23:59;2.58;;;0.77;;
70549;SDS011;58101;48.658;2.328;2023-07-29T06:26:25;2.90;;;0.75;;
70549;SDS011;58101;48.658;2.328;2023-07-29T06:28:50;3.20;;;0.90;;
70549;SDS011;58101;48.658;2.328;2023-07-29T06:31:16;3.30;;;0.85;;
70549;SDS011;58101;48.658;2.328;2023-07-29T06:33:41;3.28;;;0.82;;
70549;SDS011;58101;48.658;2.328;2023-07-29T06:36:10;2.97;;;0.80;;
70549;SDS011;58101;48.658;2.328;2023-07-29T06:38:35;2.30;;;0.70;;
70549;SDS011;58101;48.658;2.328;2023-07-29T06:41:01;3.17;;;0.70;;
70549;SDS011;58101;48.658;2.328;2023-07-29T06:43:27;3.78;;;0.70;;
70549;SDS011;58101;48.658;2.328;2023-07-29T06:45:53;2.95;;;0.80;;
70549;SDS011;58101;48.658;2.328;2023-07-29T06:48:18;3.85;;;0.80;;
70549;SDS011;58101;48.658;2.328;2023-07-29T06:50:45;3.05;;;0.77;;
70549;SDS011;58101;48.658;2.328;2023-07-29T06:53:10;2.95;;;0.80;;
70549;SDS011;58101;48.658;2.328;2023-07-29T06:55:36;4.40;;;0.80;;
70549;SDS011;58101;48.658;2.328;2023-07-29T06:58:02;3.53;;;1.17;;
70549;SDS011;58101;48.658;2.328;2023-07-29T07:00:28;2.85;;;0.80;;
70549;SDS011;58101;48.658;2.328;2023-07-29T07:02:54;3.08;;;0.80;;
70549;SDS011;58101;48.658;2.328;2023-07-29T07:05:19;3.25;;;0.77;;
70549;SDS011;58101;48.658;2.328;2023-07-29T07:07:45;3.95;;;0.90;;
70549;SDS011;58101;48.658;2.328;2023-07-29T07:10:10;3.00;;;0.80;;
70549;SDS011;58101;48.658;2.328;2023-07-29T07:12:36;2.50;;;0.73;;
70549;SDS011;58101;48.658;2.328;2023-07-29T07:15:02;5.78;;;1.02;;
70549;SDS011;58101;48.658;2.328;2023-07-29T07:17:28;3.90;;;0.90;;
70549;SDS011;58101;48.658;2.328;2023-07-29T07:19:53;3.58;;;0.90;;
70549;SDS011;58101;48.658;2.328;2023-07-29T07:22:19;3.75;;;1.00;;
70549;SDS011;58101;48.658;2.328;2023-07-29T07:24:45;4.03;;;0.95;;
70549;SDS011;58101;48.658;2.328;2023-07-29T07:27:10;3.58;;;0.90;;
70549;SDS011;58101;48.658;2.328;2023-07-29T07:29:36;3.22;;;0.90;;
70549;SDS011;58101;48.658;2.328;2023-07-29T07:32:02;2.83;;;0.80;;
70549;SDS011;58101;48.658;2.328;2023-07-29T07:34:27;4.00;;;1.00;;
70549;SDS011;58101;48.658;2.328;2023-07-29T07:36:53;4.45;;;1.00;;
70549;SDS011;58101;48.658;2.328;2023-07-29T07:39:19;3.15;;;0.90;;
70549;SDS011;58101;48.658;2.328;2023-07-29T07:41:44;3.10;;;0.82;;
70549;SDS011;58101;48.658;2.328;2023-07-29T07:44:10;4.50;;;1.00;;
70549;SDS011;58101;48.658;2.328;2023-07-29T07:46:37;3.60;;;0.80;;
70549;SDS011;58101;48.658;2.328;2023-07-29T07:49:06;5.22;;;1.10;;
70549;SDS011;58101;48.658;2.328;2023-07-29T07:51:31;3.90;;;1.00;;
70549;SDS011;58101;48.658;2.328;2023-07-29T07:53:57;3.13;;;0.90;;
70549;SDS011;58101;48.658;2.328;2023-07-29T07:56:23;4.25;;;1.10;;
70549;SDS011;58101;48.658;2.328;2023-07-29T07:58:48;4.75;;;1.00;;
70549;SDS011;58101;48.658;2.328;2023-07-29T08:01:14;5.63;;;1.10;;
70549;SDS011;58101;48.658;2.328;2023-07-29T08:03:39;4.43;;;1.13;;
70549;SDS011;58101;48.658;2.328;2023-07-29T08:06:05;4.13;;;1.10;;
70549;SDS011;58101;48.658;2.328;2023-07-29T08:08:31;4.38;;;1.10;;
70549;SDS011;58101;48.658;2.328;2023-07-29T08:10:56;4.10;;;1.20;;
70549;SDS011;58101;48.658;2.328;2023-07-29T08:13:22;4.90;;;1.45;;
70549;SDS011;58101;48.658;2.328;2023-07-29T08:15:49;4.22;;;1.20;;
70549;SDS011;58101;48.658;2.328;2023-07-29T08:18:17;4.97;;;1.30;;
70549;SDS011;58101;48.658;2.328;2023-07-29T08:23:20;4.15;;;1.20;;
70549;SDS011;58101;48.658;2.328;2023-07-29T08:25:56;4.88;;;1.33;;
70549;SDS011;58101;48.658;2.328;2023-07-29T08:28:27;4.80;;;1.50;;
70549;SDS011;58101;48.658;2.328;2023-07-29T08:30:56;3.85;;;1.10;;
70549;SDS011;58101;48.658;2.328;2023-07-29T08:33:22;5.05;;;1.48;;
70549;SDS011;58101;48.658;2.328;2023-07-29T08:35:48;4.00;;;1.30;;
70549;SDS011;58101;48.658;2.328;2023-07-29T08:38:15;4.25;;;1.20;;
70549;SDS011;58101;48.658;2.328;2023-07-29T08:43:36;4.43;;;1.13;;
70549;SDS011;58101;48.658;2.328;2023-07-29T08:46:06;3.65;;;1.20;;
70549;SDS011;58101;48.658;2.328;2023-07-29T08:48:36;4.60;;;1.33;;
70549;SDS011;58101;48.658;2.328;2023-07-29T08:51:05;4.18;;;1.25;;
70549;SDS011;58101;48.658;2.328;2023-07-29T08:53:34;5.15;;;1.10;;
70549;SDS011;58101;48.658;2.328;2023-07-29T08:56:00;4.38;;;1.17;;
70549;SDS011;58101;48.658;2.328;2023-07-29T08:58:26;4.38;;;1.23;;
70549;SDS011;58101;48.658;2.328;2023-07-29T09:00:52;5.38;;;1.50;;
70549;SDS011;58101;48.658;2.328;2023-07-29T09:03:18;4.93;;;1.20;;
70549;SDS011;58101;48.658;2.328;2023-07-29T09:05:46;4.80;;;1.30;;
70549;SDS011;58101;48.658;2.328;2023-07-29T09:08:13;4.15;;;1.27;;
70549;SDS011;58101;48.658;2.328;2023-07-29T09:10:39;5.28;;;1.40;;
70549;SDS011;58101;48.658;2.328;2023-07-29T09:13:04;5.32;;;1.40;;
70549;SDS011;58101;48.658;2.328;2023-07-29T09:17:58;4.93;;;1.40;;
70549;SDS011;58101;48.658;2.328;2023-07-29T09:20:27;4.70;;;1.40;;
70549;SDS011;58101;48.658;2.328;2023-07-29T09:22:54;4.55;;;1.40;;
70549;SDS011;58101;48.658;2.328;2023-07-29T09:25:26;5.13;;;1.60;;
70549;SDS011;58101;48.658;2.328;2023-07-29T09:27:53;5.32;;;1.40;;
70549;SDS011;58101;48.658;2.328;2023-07-29T09:30:25;6.38;;;1.80;;
70549;SDS011;58101;48.658;2.328;2023-07-29T09:32:55;4.55;;;1.60;;
70549;SDS011;58101;48.658;2.328;2023-07-29T09:35:26;5.85;;;1.77;;
70549;SDS011;58101;48.658;2.328;2023-07-29T09:37:53;5.50;;;1.92;;
70549;SDS011;58101;48.658;2.328;2023-07-29T09:40:18;5.25;;;1.60;;
70549;SDS011;58101;48.658;2.328;2023-07-29T09:42:54;5.80;;;1.90;;
70549;SDS011;58101;48.658;2.328;2023-07-29T09:45:21;5.68;;;1.67;;
70549;SDS011;58101;48.658;2.328;2023-07-29T09:47:51;4.80;;;1.60;;
70549;SDS011;58101;48.658;2.328;2023-07-29T09:50:18;4.72;;;1.60;;
70549;SDS011;58101;48.658;2.328;2023-07-29T09:52:44;4.90;;;1.70;;
70549;SDS011;58101;48.658;2.328;2023-07-29T09:57:42;5.05;;;1.70;;
70549;SDS011;58101;48.658;2.328;2023-07-29T10:00:10;6.07;;;1.80;;
70549;SDS011;58101;48.658;2.328;2023-07-29T10:02:37;5.80;;;1.77;;
70549;SDS011;58101;48.658;2.328;2023-07-29T10:05:04;5.00;;;1.55;;
70549;SDS011;58101;48.658;2.328;2023-07-29T10:07:31;6.53;;;1.70;;
70549;SDS011;58101;48.658;2.328;2023-07-29T10:12:24;4.65;;;1.40;;
70549;SDS011;58101;48.658;2.328;2023-07-29T10:14:50;6.07;;;1.50;;
70549;SDS011;58101;48.658;2.328;2023-07-29T10:17:15;5.57;;;1.40;;
70549;SDS011;58101;48.658;2.328;2023-07-29T10:19:41;5.10;;;1.40;;
70549;SDS011;58101;48.658;2.328;2023-07-29T10:22:10;4.75;;;1.30;;
70549;SDS011;58101;48.658;2.328;2023-07-29T10:24:38;4.50;;;1.20;;
70549;SDS011;58101;48.658;2.328;2023-07-29T10:27:06;5.13;;;1.38;;
70549;SDS011;58101;48.658;2.328;2023-07-29T10:29:36;4.75;;;1.30;;
70549;SDS011;58101;48.658;2.328;2023-07-29T10:32:04;5.57;;;1.40;;
70549;SDS011;58101;48.658;2.328;2023-07-29T10:34:31;4.60;;;1.20;;
70549;SDS011;58101;48.658;2.328;2023-07-29T10:36:59;4.65;;;1.30;;
70549;SDS011;58101;48.658;2.328;2023-07-29T10:39:25;4.88;;;1.30;;
70549;SDS011;58101;48.658;2.328;2023-07-29T10:47:18;4.22;;;1.15;;
70549;SDS011;58101;48.658;2.328;2023-07-29T10:49:46;4.78;;;1.20;;
70549;SDS011;58101;48.658;2.328;2023-07-29T10:52:14;4.43;;;1.30;;
70549;SDS011;58101;48.658;2.328;2023-07-29T10:54:41;4.38;;;1.20;;
70549;SDS011;58101;48.658;2.328;2023-07-29T10:57:14;5.30;;;1.27;;
70549;SDS011;58101;48.658;2.328;2023-07-29T10:59:41;6.15;;;1.40;;
70549;SDS011;58101;48.658;2.328;2023-07-29T11:02:19;4.90;;;1.42;;
70549;SDS011;58101;48.658;2.328;2023-07-29T11:04:46;6.95;;;1.30;;
70549;SDS011;58101;48.658;2.328;2023-07-29T11:09:42;5.85;;;1.30;;
70549;SDS011;58101;48.658;2.328;2023-07-29T11:17:39;5.40;;;1.45;;
70549;SDS011;58101;48.658;2.328;2023-07-29T11:20:12;5.00;;;1.40;;
70549;SDS011;58101;48.658;2.328;2023-07-29T11:22:38;4.88;;;1.42;;
70549;SDS011;58101;48.658;2.328;2023-07-29T11:25:08;4.90;;;1.40;;
70549;SDS011;58101;48.658;2.328;2023-07-29T11:27:35;5.18;;;1.20;;
70549;SDS011;58101;48.658;2.328;2023-07-29T11:30:06;5.13;;;1.40;;
70549;SDS011;58101;48.658;2.328;2023-07-29T11:32:33;5.22;;;1.40;;
70549;SDS011;58101;48.658;2.328;2023-07-29T11:37:57;6.80;;;1.33;;
70549;SDS011;58101;48.658;2.328;2023-07-29T11:40:23;5.65;;;1.30;;
70549;SDS011;58101;48.658;2.328;2023-07-29T11:42:50;4.93;;;1.23;;
70549;SDS011;58101;48.658;2.328;2023-07-29T11:45:17;5.60;;;1.40;;
70549;SDS011;58101;48.658;2.328;2023-07-29T11:47:44;6.30;;;1.30;;
70549;SDS011;58101;48.658;2.328;2023-07-29T11:50:11;5.00;;;1.38;;
70549;SDS011;58101;48.658;2.328;2023-07-29T11:52:42;5.75;;;1.52;;
70549;SDS011;58101;48.658;2.328;2023-07-29T11:55:09;5.75;;;1.40;;
70549;SDS011;58101;48.658;2.328;2023-07-29T11:57:36;6.60;;;1.60;;
70549;SDS011;58101;48.658;2.328;2023-07-29T12:00:06;5.57;;;1.15;;
70549;SDS011;58101;48.658;2.328;2023-07-29T12:02:38;5.40;;;1.30;;
70549;SDS011;58101;48.658;2.328;2023-07-29T12:05:05;4.60;;;1.17;;
70549;SDS011;58101;48.658;2.328;2023-07-29T12:07:32;5.57;;;1.38;;
70549;SDS011;58101;48.658;2.328;2023-07-29T12:10:03;5.95;;;1.20;;
70549;SDS011;58101;48.658;2.328;2023-07-29T12:14:55;4.50;;;1.20;;
70549;SDS011;58101;48.658;2.328;2023-07-29T12:17:21;5.88;;;1.30;;
70549;SDS011;58101;48.658;2.328;2023-07-29T12:19:47;4.70;;;1.17;;
70549;SDS011;58101;48.658;2.328;2023-07-29T12:22:17;4.20;;;1.13;;
70549;SDS011;58101;48.658;2.328;2023-07-29T12:24:44;5.28;;;1.20;;
70549;SDS011;58101;48.658;2.328;2023-07-29T12:27:10;4.93;;;1.10;;
70549;SDS011;58101;48.658;2.328;2023-07-29T12:29:43;5.13;;;1.20;;
70549;SDS011;58101;48.658;2.328;2023-07-29T12:32:11;4.20;;;1.17;;
70549;SDS011;58101;48.658;2.328;2023-07-29T12:34:37;4.22;;;1.02;;
70549;SDS011;58101;48.658;2.328;2023-07-29T12:37:04;3.63;;;0.90;;
70549;SDS011;58101;48.658;2.328;2023-07-29T12:39:35;3.80;;;1.08;;
70549;SDS011;58101;48.658;2.328;2023-07-29T12:42:05;5.15;;;1.30;;
70549;SDS011;58101;48.658;2.328;2023-07-29T12:44:36;3.88;;;1.10;;
70549;SDS011;58101;48.658;2.328;2023-07-29T12:47:03;6.22;;;1.40;;
70549;SDS011;58101;48.658;2.328;2023-07-29T12:49:30;4.55;;;1.10;;
70549;SDS011;58101;48.658;2.328;2023-07-29T12:54:22;4.55;;;1.20;;
70549;SDS011;58101;48.658;2.328;2023-07-29T12:56:48;5.45;;;1.30;;
70549;SDS011;58101;48.658;2.328;2023-07-29T12:59:14;5.95;;;1.20;;
70549;SDS011;58101;48.658;2.328;2023-07-29T13:01:40;5.10;;;1.20;;
70549;SDS011;58101;48.658;2.328;2023-07-29T13:04:06;5.35;;;1.25;;
70549;SDS011;58101;48.658;2.328;2023-07-29T13:06:31;5.13;;;1.20;;
70549;SDS011;58101;48.658;2.328;2023-07-29T13:08:57;4.43;;;1.20;;
70549;SDS011;58101;48.658;2.328;2023-07-29T13:11:22;4.72;;;1.30;;
70549;SDS011;58101;48.658;2.328;2023-07-29T13:13:48;4.47;;;1.23;;
70549;SDS011;58101;48.658;2.328;2023-07-29T13:18:40;4.63;;;1.10;;
70549;SDS011;58101;48.658;2.328;2023-07-29T13:21:06;4.57;;;1.30;;
70549;SDS011;58101;48.658;2.328;2023-07-29T13:23:31;4.15;;;1.20;;
70549;SDS011;58101;48.658;2.328;2023-07-29T13:25:57;6.50;;;1.15;;
70549;SDS011;58101;48.658;2.328;2023-07-29T13:28:23;8.27;;;1.40;;
70549;SDS011;58101;48.658;2.328;2023-07-29T13:30:49;5.47;;;1.20;;
70549;SDS011;58101;48.658;2.328;2023-07-29T13:33:14;4.47;;;1.15;;
70549;SDS011;58101;48.658;2.328;2023-07-29T13:35:40;3.80;;;1.00;;
70549;SDS011;58101;48.658;2.328;2023-07-29T13:38:06;4.18;;;1.10;;
70549;SDS011;58101;48.658;2.328;2023-07-29T13:40:31;4.05;;;1.10;;
70549;SDS011;58101;48.658;2.328;2023-07-29T13:42:57;4.72;;;1.27;;
70549;SDS011;58101;48.658;2.328;2023-07-29T13:45:23;3.80;;;1.00;;
70549;SDS011;58101;48.658;2.328;2023-07-29T13:47:49;4.82;;;1.20;;
70549;SDS011;58101;48.658;2.328;2023-07-29T13:52:41;4.65;;;1.25;;
70549;SDS011;58101;48.658;2.328;2023-07-29T13:55:06;5.03;;;1.20;;
70549;SDS011;58101;48.658;2.328;2023-07-29T13:57:32;4.53;;;1.20;;
70549;SDS011;58101;48.658;2.328;2023-07-29T13:59:58;4.70;;;1.30;;
70549;SDS011;58101;48.658;2.328;2023-07-29T14:02:24;3.95;;;1.10;;
70549;SDS011;58101;48.658;2.328;2023-07-29T14:04:53;8.27;;;1.30;;
70549;SDS011;58101;48.658;2.328;2023-07-29T14:07:19;5.72;;;1.13;;
70549;SDS011;58101;48.658;2.328;2023-07-29T14:09:44;4.20;;;1.10;;
70549;SDS011;58101;48.658;2.328;2023-07-29T14:12:10;4.32;;;1.08;;
70549;SDS011;58101;48.658;2.328;2023-07-29T14:14:38;5.82;;;1.30;;
70549;SDS011;58101;48.658;2.328;2023-07-29T14:17:04;4.18;;;1.08;;
70549;SDS011;58101;48.658;2.328;2023-07-29T14:19:30;5.00;;;1.20;;
70549;SDS011;58101;48.658;2.328;2023-07-29T14:21:56;3.92;;;1.20;;
70549;SDS011;58101;48.658;2.328;2023-07-29T14:24:22;5.55;;;1.20;;
70549;SDS011;58101;48.658;2.328;2023-07-29T14:26:47;5.00;;;1.20;;
70549;SDS011;58101;48.658;2.328;2023-07-29T14:29:13;5.38;;;1.30;;
70549;SDS011;58101;48.658;2.328;2023-07-29T14:31:39;4.47;;;1.20;;
70549;SDS011;58101;48.658;2.328;2023-07-29T14:34:04;4.82;;;1.38;;
70549;SDS011;58101;48.658;2.328;2023-07-29T14:36:30;4.18;;;1.25;;
70549;SDS011;58101;48.658;2.328;2023-07-29T14:38:55;4.93;;;1.30;;
70549;SDS011;58101;48.658;2.328;2023-07-29T14:41:21;4.30;;;1.20;;
70549;SDS011;58101;48.658;2.328;2023-07-29T14:43:47;4.53;;;1.23;;
70549;SDS011;58101;48.658;2.328;2023-07-29T14:46:13;5.07;;;1.20;;
70549;SDS011;58101;48.658;2.328;2023-07-29T14:48:38;3.85;;;1.13;;
70549;SDS011;58101;48.658;2.328;2023-07-29T14:51:04;4.22;;;1.17;;
70549;SDS011;58101;48.658;2.328;2023-07-29T14:53:29;4.75;;;1.20;;
70549;SDS011;58101;48.658;2.328;2023-07-29T14:55:55;4.35;;;1.20;;
70549;SDS011;58101;48.658;2.328;2023-07-29T14:58:21;3.88;;;1.10;;
70549;SDS011;58101;48.658;2.328;2023-07-29T15:00:46;4.07;;;1.08;;
70549;SDS011;58101;48.658;2.328;2023-07-29T15:03:12;3.90;;;0.90;;
70549;SDS011;58101;48.658;2.328;2023-07-29T15:05:38;3.53;;;1.00;;
70549;SDS011;58101;48.658;2.328;2023-07-29T15:08:03;4.10;;;1.05;;
70549;SDS011;58101;48.658;2.328;2023-07-29T15:10:29;3.45;;;0.90;;
70549;SDS011;58101;48.658;2.328;2023-07-29T15:12:54;4.18;;;0.90;;
70549;SDS011;58101;48.658;2.328;2023-07-29T15:15:20;3.90;;;1.00;;
70549;SDS011;58101;48.658;2.328;2023-07-29T15:17:46;3.05;;;0.80;;
70549;SDS011;58101;48.658;2.328;2023-07-29T15:20:11;4.00;;;0.90;;
70549;SDS011;58101;48.658;2.328;2023-07-29T15:22:37;3.65;;;0.90;;
70549;SDS011;58101;48.658;2.328;2023-07-29T15:25:07;4.35;;;1.10;;
70549;SDS011;58101;48.658;2.328;2023-07-29T15:27:34;3.60;;;0.90;;
70549;SDS011;58101;48.658;2.328;2023-07-29T15:29:59;3.80;;;1.00;;
70549;SDS011;58101;48.658;2.328;2023-07-29T15:32:25;3.90;;;1.17;;